Airfield :
LOGIN :

Register | Disclaimer

   EN    FR    IT 

 










Legend :    VFR   Marginal VFR   IFR   Intensive IFR   Very Intensive IFR
Visi :
Ceiling :
>= 8 km
>= 3000ft
5 to 8 km
1000 to 3000 ft
1500m to 5 km
500 to 1000 ft
800 to 1500m
200 to 500 ft
< 800m
< 200 ft
Symbols :   Thunderstorms  Fog  Heavy snow  Heavy precipitations  Wind > 20 kt
SIGMETs :     Misc.  Thunderstorms  Icing  Turbulence  Mountain Waves  Volcanic Ashes







- Airport Elevation : 3368 ft


LSGC - Les Eplatures

CURRENT METAR :
  • 241150Z VRB05KT 9999 SCT048 BKN095 16/06 Q1003

EXPIRED METARs :
  • 241120Z 25004KT 210V290 CAVOK 16/03 Q1003
  • 241050Z 19004KT 160V270 CAVOK 17/04 Q1003
  • 241020Z VRB03KT CAVOK 16/04 Q1003
  • 240950Z AUTO 12007KT 030V170 9999 NCD 17/06 Q1004
  • 240920Z 12005KT 040V210 CAVOK 16/04 Q1004

TAF TAF LSGC
Valid from the 24 at 12:00 until the 24 at 21:00 UTC


241125Z 2412/2421 19008KT CAVOK
BECMG 2413/2415 20015G30KT 9999 SHRA FEW010 FEW015TCU BKN020
No reported NOTAMs for that airfield.
1 SIGMET reported for the Switzerland FIR (LSAS) :
 
Severe turbulence
LSAS SIGMET 1 VALID 241100/241500 LSZH
LSAS SWITZERLAND FIR SEV TURB FCST WI N4716 E00932 - N4657 E00959 - N4627 E00824 - N4600 E00812 - N4540 E00654 - N4616 E00627 - N4716 E00932 - N4716 E00932 SFC/FL140 STNR INTSF=



MET'MAP, your aeronautical weather chart ! - Copyright ORBIFLY December 2007 - Disclaimer

ORBIFLY MET'MAP TEAM :

Programming & Development : Alexandra Zaïnal
Concept & Development : Baudouin d'Aumeries
Co-Development & Prog : Marc-Olivier Méhu
Technical & hardware support : Manuel Goepfert

Contact : metmap@orbifly.com




SOURCES & CREDITS :

   NOAA